Time;durP1;ratioP1;P1;durP2;ratioP2;P2;SDS_P1;SDS_P2;PMS_P1;PMS_P2;Temp;Humidity;BMP_temperature;BMP_pressure;BME280_temperature;BME280_humidity;BME280_pressure;Samples;Min_cycle;Max_cycle;Signal;HPM_P1;HPM_P2
2023/12/29 00:01:57;;;;;;;1.60;1.40;;;11.60;99.90;;;;;;5053370;28;20765;-57
2023/12/29 00:04:25;;;;;;;1.47;1.30;;;11.60;99.90;;;;;;5053312;28;20214;-56
2023/12/29 00:06:51;;;;;;;1.63;1.47;;;11.60;99.90;;;;;;5053434;28;20209;-55
2023/12/29 00:09:19;;;;;;;2.70;1.27;;;11.60;99.90;;;;;;5053499;28;20389;-56
2023/12/29 00:11:46;;;;;;;2.77;1.23;;;11.60;99.90;;;;;;5053182;28;20744;-56
2023/12/29 00:14:13;;;;;;;2.60;1.47;;;11.60;99.90;;;;;;5053076;28;20239;-55
2023/12/29 00:16:40;;;;;;;3.73;3.33;;;11.60;99.90;;;;;;5053513;28;20201;-55
2023/12/29 00:19:06;;;;;;;1.93;1.37;;;11.70;99.90;;;;;;5052961;28;20209;-53
2023/12/29 00:21:34;;;;;;;2.60;1.53;;;11.70;99.90;;;;;;5053065;28;20249;-55
2023/12/29 00:24:01;;;;;;;1.70;1.50;;;11.70;99.90;;;;;;5053246;28;20232;-55
2023/12/29 00:26:28;;;;;;;4.57;1.90;;;11.80;99.90;;;;;;5052871;28;20698;-55
2023/12/29 00:28:55;;;;;;;1.93;1.50;;;11.80;99.90;;;;;;5053127;28;20259;-56
2023/12/29 00:31:21;;;;;;;3.00;1.60;;;11.80;99.90;;;;;;5052709;28;20225;-56
2023/12/29 00:33:51;;;;;;;1.70;1.30;;;11.80;99.90;;;;;;5052867;28;20267;-55
2023/12/29 00:36:19;;;;;;;2.03;1.40;;;11.90;99.90;;;;;;5053277;28;20210;-56
2023/12/29 00:38:47;;;;;;;3.43;1.60;;;11.90;99.90;;;;;;5053019;28;20208;-56
2023/12/29 00:41:14;;;;;;;2.20;1.50;;;11.90;99.90;;;;;;5052493;28;20675;-55
2023/12/29 00:43:40;;;;;;;1.97;1.67;;;11.90;99.90;;;;;;5052751;28;20210;-56
2023/12/29 00:46:08;;;;;;;2.60;2.33;;;11.90;99.90;;;;;;5052544;28;20292;-53
2023/12/29 00:48:35;;;;;;;14.13;7.73;;;12.00;99.90;;;;;;5052884;28;20217;-56
2023/12/29 00:51:02;;;;;;;3.57;2.10;;;12.10;99.90;;;;;;5052696;28;20578;-55
2023/12/29 00:53:29;;;;;;;1.57;1.43;;;12.10;99.90;;;;;;5052722;28;20229;-56
2023/12/29 00:55:57;;;;;;;1.53;1.37;;;12.20;99.90;;;;;;5053013;28;20212;-56
2023/12/29 00:58:23;;;;;;;1.70;1.50;;;12.30;99.90;;;;;;5052536;28;20213;-55
2023/12/29 01:00:50;;;;;;;1.93;1.30;;;12.30;99.90;;;;;;5052432;28;20230;-55
2023/12/29 01:03:17;;;;;;;1.57;1.47;;;12.40;99.90;;;;;;5052941;28;20296;-56
2023/12/29 01:05:44;;;;;;;2.90;1.47;;;12.40;99.90;;;;;;5052391;28;20585;-56
2023/12/29 01:08:11;;;;;;;3.33;1.67;;;12.50;99.90;;;;;;5052293;28;20213;-56
2023/12/29 01:10:38;;;;;;;2.70;1.60;;;12.50;99.90;;;;;;5052870;28;20226;-54
2023/12/29 01:13:06;;;;;;;2.10;1.70;;;12.50;99.90;;;;;;5053747;28;20209;-55
2023/12/29 01:15:33;;;;;;;2.13;1.53;;;12.60;99.90;;;;;;5052996;28;20206;-55
2023/12/29 01:17:59;;;;;;;2.13;1.50;;;12.60;99.90;;;;;;5054467;28;20661;-56
2023/12/29 01:20:26;;;;;;;1.57;1.33;;;12.70;99.90;;;;;;5052113;28;20816;-55
2023/12/29 01:22:53;;;;;;;2.67;1.70;;;12.70;99.90;;;;;;5052044;28;20209;-56
2023/12/29 01:25:19;;;;;;;2.03;1.40;;;12.70;99.90;;;;;;5051867;28;20236;-55
2023/12/29 01:27:46;;;;;;;2.37;1.70;;;12.50;99.90;;;;;;5052008;28;20221;-54
2023/12/29 01:30:14;;;;;;;1.70;1.47;;;12.40;99.90;;;;;;5051970;28;20283;-56
2023/12/29 01:32:41;;;;;;;2.27;1.70;;;12.30;99.90;;;;;;5051945;28;20213;-56
2023/12/29 01:35:08;;;;;;;2.30;1.53;;;12.20;99.90;;;;;;5051957;28;20205;-56
2023/12/29 01:37:35;;;;;;;2.30;1.83;;;12.20;99.90;;;;;;5035386;28;20209;-56
2023/12/29 01:40:02;;;;;;;1.83;1.60;;;12.10;99.90;;;;;;5051773;28;20229;-56
2023/12/29 01:42:28;;;;;;;1.70;1.50;;;12.10;99.90;;;;;;5051521;28;20210;-54
2023/12/29 01:44:55;;;;;;;2.70;1.90;;;12.20;99.90;;;;;;5051740;28;20206;-55
2023/12/29 01:47:23;;;;;;;2.33;1.47;;;12.20;99.90;;;;;;5051644;28;20263;-55
2023/12/29 01:49:51;;;;;;;3.10;1.80;;;12.20;99.90;;;;;;5051576;28;20247;-56
2023/12/29 01:52:18;;;;;;;1.80;1.60;;;12.20;99.90;;;;;;5051355;28;20213;-55
2023/12/29 01:54:48;;;;;;;2.17;1.50;;;12.30;99.90;;;;;;5051582;28;20213;-56
2023/12/29 01:57:15;;;;;;;4.33;1.97;;;12.30;99.90;;;;;;5051666;28;20205;-54
2023/12/29 01:59:45;;;;;;;3.43;2.33;;;12.30;99.90;;;;;;5052019;28;20232;-56
2023/12/29 02:02:12;;;;;;;2.30;1.90;;;12.30;99.90;;;;;;5051490;28;20232;-55
2023/12/29 02:04:42;;;;;;;1.80;1.70;;;12.30;99.90;;;;;;5051524;28;20206;-54
2023/12/29 02:07:08;;;;;;;1.97;1.77;;;12.30;99.90;;;;;;5051610;28;20217;-55
2023/12/29 02:09:35;;;;;;;1.83;1.70;;;12.40;99.90;;;;;;5035040;28;20233;-54
2023/12/29 02:12:03;;;;;;;1.83;1.57;;;12.40;99.90;;;;;;5051366;28;20663;-55
2023/12/29 02:14:30;;;;;;;2.27;1.80;;;12.40;99.90;;;;;;5051358;28;21068;-55
2023/12/29 02:17:06;;;;;;;2.10;1.73;;;12.30;99.90;;;;;;5051335;28;20216;-55
2023/12/29 02:19:40;;;;;;;2.90;1.70;;;12.30;99.90;;;;;;5051117;28;20352;-53
2023/12/29 02:22:08;;;;;;;2.00;1.60;;;12.40;99.90;;;;;;5051112;28;20322;-55
2023/12/29 02:24:35;;;;;;;2.83;1.70;;;12.40;99.90;;;;;;5050866;28;20678;-56
2023/12/29 02:27:10;;;;;;;2.77;2.10;;;12.40;99.90;;;;;;5051281;28;20292;-55
2023/12/29 02:29:41;;;;;;;2.60;1.73;;;12.30;99.90;;;;;;5035284;28;20279;-55
2023/12/29 02:32:12;;;;;;;2.93;1.90;;;12.30;99.90;;;;;;5051181;28;20751;-55
2023/12/29 02:34:41;;;;;;;3.80;2.40;;;12.40;99.90;;;;;;5035605;28;20633;-56
2023/12/29 02:37:09;;;;;;;3.40;1.90;;;12.50;99.90;;;;;;5051298;28;20205;-55
2023/12/29 02:39:36;;;;;;;3.50;2.00;;;12.40;99.90;;;;;;5034784;28;20225;-55
2023/12/29 02:42:03;;;;;;;2.70;2.00;;;12.40;99.90;;;;;;5050981;28;20665;-55
2023/12/29 02:44:31;;;;;;;1.90;1.70;;;12.40;99.90;;;;;;5050951;28;20209;-54
2023/12/29 02:46:59;;;;;;;2.30;2.10;;;12.30;99.90;;;;;;5050831;28;20206;-55
2023/12/29 02:49:27;;;;;;;2.03;1.90;;;12.40;99.90;;;;;;5052639;28;20283;-54
2023/12/29 02:51:53;;;;;;;3.17;2.00;;;12.40;99.90;;;;;;5055133;28;20201;-53
2023/12/29 02:54:20;;;;;;;2.17;1.90;;;12.40;99.90;;;;;;5055365;28;20324;-54
2023/12/29 02:56:47;;;;;;;2.27;2.00;;;12.40;99.90;;;;;;5055512;28;20201;-55
2023/12/29 02:59:14;;;;;;;1.90;1.70;;;12.50;99.90;;;;;;5055564;28;20205;-57
2023/12/29 03:01:42;;;;;;;2.50;2.30;;;12.50;99.90;;;;;;5054482;28;20222;-55
2023/12/29 03:04:08;;;;;;;2.83;2.00;;;12.50;99.90;;;;;;5054840;28;20205;-56
2023/12/29 03:06:35;;;;;;;2.70;2.00;;;12.60;99.90;;;;;;5054597;28;20217;-55
2023/12/29 03:09:02;;;;;;;2.27;1.80;;;12.70;99.90;;;;;;5054537;28;20291;-55
2023/12/29 03:11:28;;;;;;;2.70;2.00;;;12.70;99.90;;;;;;5054380;28;20201;-55
2023/12/29 03:13:55;;;;;;;2.03;1.83;;;12.70;99.90;;;;;;5054665;28;20209;-56
2023/12/29 03:16:22;;;;;;;2.20;1.90;;;12.60;99.90;;;;;;5055170;28;20695;-56
2023/12/29 03:18:50;;;;;;;2.77;1.97;;;12.50;99.90;;;;;;5055161;28;20208;-55
2023/12/29 03:21:17;;;;;;;2.50;1.87;;;12.40;99.90;;;;;;5054154;28;20232;-55
2023/12/29 03:23:43;;;;;;;3.40;1.97;;;12.30;99.90;;;;;;5054785;28;20264;-56
2023/12/29 03:26:10;;;;;;;3.77;1.90;;;12.30;99.90;;;;;;5054883;28;20460;-56
2023/12/29 03:28:37;;;;;;;2.57;1.80;;;12.30;99.90;;;;;;5037834;28;20217;-55
2023/12/29 03:31:03;;;;;;;4.00;2.03;;;12.20;99.90;;;;;;5053964;28;20872;-55
2023/12/29 03:33:31;;;;;;;2.23;1.70;;;12.20;99.90;;;;;;5054266;28;20213;-56
2023/12/29 03:35:59;;;;;;;4.50;2.03;;;12.30;99.90;;;;;;5054210;28;20209;-56
2023/12/29 03:38:26;;;;;;;4.30;2.00;;;12.30;99.90;;;;;;5054326;28;20628;-57
2023/12/29 03:40:52;;;;;;;4.67;1.90;;;12.30;99.90;;;;;;5054036;28;20513;-55
2023/12/29 03:43:19;;;;;;;2.73;2.00;;;12.30;99.90;;;;;;5054072;28;20209;-55
2023/12/29 03:45:46;;;;;;;5.20;2.10;;;12.40;99.90;;;;;;5054331;28;20220;-55
2023/12/29 03:48:12;;;;;;;2.40;1.80;;;12.40;99.90;;;;;;5054041;28;20612;-55
2023/12/29 03:50:39;;;;;;;2.53;1.93;;;12.40;99.90;;;;;;5038031;28;20236;-55
2023/12/29 03:53:07;;;;;;;2.70;2.10;;;12.40;99.90;;;;;;5053748;28;20205;-56
2023/12/29 03:55:34;;;;;;;2.83;1.90;;;12.40;99.90;;;;;;5053819;28;20562;-56
2023/12/29 03:58:02;;;;;;;2.40;2.10;;;12.20;99.90;;;;;;5054502;28;20209;-56
2023/12/29 04:00:29;;;;;;;2.30;2.00;;;12.20;99.90;;;;;;5053533;28;20249;-55
2023/12/29 04:02:55;;;;;;;3.23;2.03;;;12.10;99.90;;;;;;5053380;28;20710;-55
2023/12/29 04:05:22;;;;;;;2.10;1.90;;;12.10;99.90;;;;;;5053690;28;20209;-55
2023/12/29 04:07:49;;;;;;;3.40;1.93;;;12.10;99.90;;;;;;5053604;28;20232;-56
2023/12/29 04:10:17;;;;;;;4.30;2.20;;;12.20;99.90;;;;;;5053019;28;20662;-56
2023/12/29 04:12:43;;;;;;;3.00;2.20;;;12.20;99.90;;;;;;5053314;28;20652;-54
2023/12/29 04:15:10;;;;;;;2.53;2.00;;;12.30;99.90;;;;;;5053434;28;20736;-56
2023/12/29 04:17:37;;;;;;;3.70;2.00;;;12.20;99.90;;;;;;5053450;28;20244;-54
2023/12/29 04:20:04;;;;;;;2.40;1.70;;;12.20;99.90;;;;;;5072070;22;20252;-62
2023/12/29 04:22:31;;;;;;;2.97;2.10;;;12.20;99.90;;;;;;5043796;28;20234;-62
2023/12/29 04:24:58;;;;;;;1.70;1.60;;;12.20;99.90;;;;;;5044922;28;20216;-62
2023/12/29 04:27:26;;;;;;;2.03;1.70;;;12.00;99.90;;;;;;5043542;28;20216;-63
2023/12/29 04:29:52;;;;;;;2.47;1.70;;;12.00;99.90;;;;;;5045402;28;20233;-62
2023/12/29 04:32:19;;;;;;;2.93;2.07;;;11.90;99.90;;;;;;5053057;28;20201;-63
2023/12/29 04:34:46;;;;;;;3.33;2.03;;;11.80;99.90;;;;;;5053524;28;20263;-61
2023/12/29 04:37:12;;;;;;;2.73;1.80;;;11.80;99.90;;;;;;5053321;28;20220;-62
2023/12/29 04:39:39;;;;;;;1.83;1.63;;;11.80;99.90;;;;;;5052937;28;20205;-63
2023/12/29 04:42:07;;;;;;;2.20;1.60;;;11.70;99.90;;;;;;5052685;28;20733;-62
2023/12/29 04:44:35;;;;;;;1.80;1.70;;;11.80;99.90;;;;;;5052899;28;20206;-63
2023/12/29 04:47:01;;;;;;;3.23;1.80;;;11.80;99.90;;;;;;5052964;28;20212;-62
2023/12/29 04:49:28;;;;;;;1.87;1.50;;;11.80;99.90;;;;;;5052702;28;20259;-61
2023/12/29 04:51:54;;;;;;;2.03;1.70;;;11.80;99.90;;;;;;5052756;28;20232;-62
2023/12/29 04:54:21;;;;;;;2.23;1.50;;;11.50;99.90;;;;;;5052552;28;20224;-63
2023/12/29 04:56:48;;;;;;;2.00;1.53;;;11.90;99.90;;;;;;5053131;28;20498;-62
2023/12/29 04:59:14;;;;;;;2.10;1.67;;;12.00;99.90;;;;;;5052425;28;20224;-61
2023/12/29 05:01:42;;;;;;;2.73;1.50;;;12.00;99.90;;;;;;5052363;28;20229;-62
2023/12/29 05:04:09;;;;;;;2.23;1.43;;;12.10;99.90;;;;;;5052577;28;20209;-63
2023/12/29 05:06:36;;;;;;;2.50;2.00;;;12.10;99.90;;;;;;5052312;28;20694;-62
2023/12/29 05:09:03;;;;;;;2.80;1.50;;;12.00;99.90;;;;;;5052590;28;20593;-62
2023/12/29 05:11:32;;;;;;;2.50;1.43;;;12.00;99.90;;;;;;5051137;28;20275;-63
2023/12/29 05:13:59;;;;;;;2.20;1.60;;;12.00;99.90;;;;;;5052358;28;20209;-62
2023/12/29 05:16:26;;;;;;;3.00;1.67;;;12.10;99.90;;;;;;5052097;28;20202;-63
2023/12/29 05:18:54;;;;;;;1.50;1.40;;;12.10;99.90;;;;;;5052259;28;20602;-62
2023/12/29 05:21:20;;;;;;;2.10;1.90;;;12.10;99.90;;;;;;5051541;28;20505;-63
2023/12/29 05:23:48;;;;;;;1.80;1.40;;;12.20;99.90;;;;;;5052142;28;20264;-62
2023/12/29 05:26:15;;;;;;;1.40;1.30;;;12.20;99.90;;;;;;5052120;28;20554;-62
2023/12/29 05:28:42;;;;;;;2.50;1.80;;;12.30;99.90;;;;;;5036293;28;20303;-62
2023/12/29 05:31:09;;;;;;;2.70;1.70;;;12.30;99.90;;;;;;5051815;28;20229;-63
2023/12/29 05:33:36;;;;;;;3.23;1.63;;;12.40;99.90;;;;;;5051814;28;20952;-63
2023/12/29 05:36:09;;;;;;;1.97;1.50;;;12.40;99.90;;;;;;5051876;28;20259;-62
2023/12/29 05:38:36;;;;;;;1.73;1.63;;;12.40;99.90;;;;;;5051965;28;20259;-62
2023/12/29 05:41:04;;;;;;;2.03;1.80;;;12.40;99.90;;;;;;5051639;28;20228;-63
2023/12/29 05:43:31;;;;;;;3.10;1.50;;;12.50;99.90;;;;;;5052040;28;20225;-63
2023/12/29 05:45:59;;;;;;;2.20;1.90;;;12.40;99.90;;;;;;5051853;28;20252;-62
2023/12/29 05:48:25;;;;;;;1.77;1.67;;;12.30;99.90;;;;;;5051405;28;20236;-61
2023/12/29 05:50:52;;;;;;;3.30;2.23;;;12.20;99.90;;;;;;5051422;28;20223;-62
2023/12/29 05:53:20;;;;;;;1.97;1.70;;;12.20;99.90;;;;;;5051519;28;20202;-62
2023/12/29 05:55:47;;;;;;;2.70;1.77;;;12.20;99.90;;;;;;5051636;28;20231;-62
2023/12/29 05:58:13;;;;;;;2.63;2.00;;;12.10;99.90;;;;;;5051558;28;20204;-61
2023/12/29 06:00:40;;;;;;;2.10;1.80;;;12.10;99.90;;;;;;5051501;28;20267;-62
2023/12/29 06:03:07;;;;;;;2.43;1.50;;;12.10;99.90;;;;;;5051554;28;20270;-62
2023/12/29 06:05:34;;;;;;;3.13;2.20;;;11.90;99.90;;;;;;5051417;28;20201;-62
2023/12/29 06:08:00;;;;;;;2.20;1.77;;;11.90;99.90;;;;;;5051570;28;20209;-62
2023/12/29 06:10:28;;;;;;;4.10;1.93;;;11.90;99.90;;;;;;5051290;28;20221;-62
2023/12/29 06:12:55;;;;;;;1.80;1.50;;;11.90;99.90;;;;;;5051185;28;20194;-63
2023/12/29 06:15:22;;;;;;;3.67;1.90;;;11.90;99.90;;;;;;5050857;28;20202;-61
2023/12/29 06:17:48;;;;;;;2.30;1.77;;;11.90;99.90;;;;;;5051447;28;20202;-64
2023/12/29 06:20:15;;;;;;;2.03;1.80;;;11.80;99.90;;;;;;5051209;28;20229;-61
2023/12/29 06:22:42;;;;;;;3.37;2.23;;;11.80;99.90;;;;;;5050878;28;20222;-60
2023/12/29 06:25:10;;;;;;;6.30;4.43;;;11.70;99.90;;;;;;5051212;28;20216;-61
2023/12/29 06:27:39;;;;;;;2.93;1.90;;;11.70;99.90;;;;;;5051076;28;20301;-61
2023/12/29 06:30:07;;;;;;;2.20;1.83;;;11.60;99.90;;;;;;5050964;28;20225;-62
2023/12/29 06:32:34;;;;;;;2.57;1.90;;;11.50;99.90;;;;;;5050939;28;20202;-61
2023/12/29 06:35:01;;;;;;;2.73;1.60;;;11.40;99.90;;;;;;5051126;28;20217;-62
2023/12/29 06:37:28;;;;;;;2.20;2.00;;;11.30;99.90;;;;;;5051058;28;20202;-62
2023/12/29 06:39:55;;;;;;;3.33;2.00;;;11.20;99.90;;;;;;5050973;28;20635;-62
2023/12/29 06:42:22;;;;;;;3.03;2.30;;;11.10;99.90;;;;;;5050457;28;20221;-62
2023/12/29 06:44:50;;;;;;;2.53;2.30;;;11.00;99.90;;;;;;5050726;28;20679;-61
2023/12/29 06:47:17;;;;;;;3.20;2.40;;;10.90;99.90;;;;;;5050906;28;20296;-62
2023/12/29 06:49:44;;;;;;;4.50;2.43;;;10.80;99.90;;;;;;5034731;28;20213;-62
2023/12/29 06:52:10;;;;;;;2.20;2.00;;;10.80;99.90;;;;;;5050637;28;20289;-60
2023/12/29 06:54:37;;;;;;;2.90;2.17;;;10.70;99.90;;;;;;5050691;28;20563;-62
2023/12/29 06:57:04;;;;;;;2.77;1.97;;;10.70;99.90;;;;;;5050816;28;20564;-62
2023/12/29 06:59:30;;;;;;;3.40;2.47;;;10.60;99.90;;;;;;5050659;28;20202;-61
2023/12/29 07:01:58;;;;;;;2.60;2.17;;;10.50;99.90;;;;;;5050675;28;20625;-62
2023/12/29 07:04:25;;;;;;;2.50;2.13;;;10.50;99.90;;;;;;5050621;28;20213;-62
2023/12/29 07:06:52;;;;;;;2.70;2.10;;;10.30;99.90;;;;;;5050867;28;20206;-62
2023/12/29 07:09:18;;;;;;;2.60;2.20;;;10.40;99.90;;;;;;5050706;28;20201;-62
2023/12/29 07:11:48;;;;;;;3.30;1.90;;;10.40;99.90;;;;;;5034470;28;20232;-62
2023/12/29 07:14:15;;;;;;;1.87;1.67;;;10.40;99.90;;;;;;5050945;28;20235;-61
2023/12/29 07:16:42;;;;;;;3.90;1.80;;;10.50;99.90;;;;;;5050624;28;20623;-62
2023/12/29 07:19:10;;;;;;;3.13;1.87;;;10.60;99.90;;;;;;5050704;28;20298;-62
2023/12/29 07:21:36;;;;;;;2.23;1.97;;;10.80;99.90;;;;;;5050324;28;20226;-62
2023/12/29 07:24:03;;;;;;;2.07;1.87;;;10.90;99.90;;;;;;5050656;28;20217;-62
2023/12/29 07:26:30;;;;;;;1.93;1.73;;;11.00;99.90;;;;;;5050494;28;20668;-62
2023/12/29 07:28:57;;;;;;;2.23;1.70;;;11.10;99.90;;;;;;5050987;28;20201;-61
2023/12/29 07:31:23;;;;;;;5.20;4.70;;;11.20;99.90;;;;;;5050145;28;20597;-62
2023/12/29 07:33:50;;;;;;;2.40;1.77;;;11.30;99.90;;;;;;5050464;28;20667;-63
2023/12/29 07:36:18;;;;;;;2.53;1.70;;;11.30;99.90;;;;;;5053821;28;20263;-62
2023/12/29 07:38:45;;;;;;;1.93;1.50;;;11.50;99.90;;;;;;5037808;28;20601;-63
2023/12/29 07:41:12;;;;;;;2.07;1.73;;;11.60;99.90;;;;;;5053857;28;20580;-63
2023/12/29 07:43:39;;;;;;;2.37;1.50;;;11.60;99.90;;;;;;5053882;28;20226;-63
2023/12/29 07:46:05;;;;;;;3.90;3.50;;;11.60;99.90;;;;;;5054092;28;20578;-62
2023/12/29 07:48:32;;;;;;;3.00;2.30;;;11.60;99.90;;;;;;5053986;28;20659;-63
2023/12/29 07:51:04;;;;;;;3.47;2.73;;;11.60;99.90;;;;;;5053606;28;20588;-63
2023/12/29 07:53:33;;;;;;;3.27;2.87;;;11.70;99.90;;;;;;5053686;28;20671;-64
2023/12/29 07:55:59;;;;;;;3.43;2.93;;;11.80;99.90;;;;;;5054174;28;20507;-62
2023/12/29 07:58:26;;;;;;;2.53;2.30;;;11.90;99.90;;;;;;5053840;28;20201;-62
2023/12/29 08:00:53;;;;;;;1.80;1.53;;;12.00;99.90;;;;;;5053788;28;20252;-61
2023/12/29 08:03:19;;;;;;;2.10;1.53;;;12.10;99.90;;;;;;5053688;28;20225;-62
2023/12/29 08:05:46;;;;;;;1.70;1.47;;;12.20;99.90;;;;;;5037623;28;20202;-63
2023/12/29 08:08:13;;;;;;;2.33;2.13;;;12.20;99.90;;;;;;5053707;28;20312;-63
2023/12/29 08:10:41;;;;;;;3.23;1.80;;;12.30;99.90;;;;;;5053386;28;20612;-62
2023/12/29 08:13:08;;;;;;;1.90;1.70;;;12.40;99.90;;;;;;5053512;28;20660;-62
2023/12/29 08:15:35;;;;;;;1.53;1.10;;;12.50;99.90;;;;;;5053766;28;20209;-62
2023/12/29 08:18:02;;;;;;;2.13;1.40;;;12.50;99.90;;;;;;5053610;28;20206;-61
2023/12/29 08:20:29;;;;;;;2.90;2.27;;;12.60;99.90;;;;;;5053141;28;20221;-62
2023/12/29 08:22:56;;;;;;;6.87;6.17;;;12.60;99.90;;;;;;5053266;28;20228;-62
2023/12/29 08:25:23;;;;;;;2.03;1.40;;;12.60;99.90;;;;;;5053271;28;20323;-63
2023/12/29 08:27:51;;;;;;;1.60;1.37;;;12.60;99.90;;;;;;5053535;28;20217;-62
2023/12/29 08:30:18;;;;;;;3.97;1.40;;;12.60;99.90;;;;;;5053385;28;20225;-61
2023/12/29 08:32:44;;;;;;;2.33;1.50;;;12.50;99.90;;;;;;5052972;28;20201;-61
2023/12/29 08:35:11;;;;;;;2.07;1.30;;;12.60;99.90;;;;;;5052977;28;20570;-62
2023/12/29 08:37:37;;;;;;;3.30;1.40;;;12.60;99.90;;;;;;5053042;28;20724;-62
2023/12/29 08:40:04;;;;;;;1.40;1.00;;;12.60;99.90;;;;;;5053103;28;20243;-62
2023/12/29 08:42:31;;;;;;;1.30;1.20;;;12.60;99.90;;;;;;5052902;28;20353;-63
2023/12/29 08:45:01;;;;;;;1.43;1.20;;;12.60;99.90;;;;;;5053127;28;20206;-63
2023/12/29 08:47:27;;;;;;;1.70;1.27;;;12.60;99.90;;;;;;5052890;28;20209;-62
2023/12/29 08:49:55;;;;;;;1.20;1.10;;;12.60;99.90;;;;;;5053385;28;20639;-63
2023/12/29 08:52:21;;;;;;;2.33;1.70;;;12.60;99.90;;;;;;5052896;28;20242;-62
2023/12/29 08:54:48;;;;;;;2.03;1.30;;;12.60;99.90;;;;;;5036807;28;20251;-63
2023/12/29 08:57:15;;;;;;;1.87;1.60;;;12.60;99.90;;;;;;5053048;28;20198;-61
2023/12/29 08:59:42;;;;;;;1.33;1.20;;;12.70;99.90;;;;;;5052475;28;20213;-63
2023/12/29 09:02:10;;;;;;;1.87;1.50;;;12.70;99.90;;;;;;5052485;28;20201;-61
2023/12/29 09:04:36;;;;;;;4.30;1.60;;;12.70;99.90;;;;;;5052599;28;20218;-60
2023/12/29 09:07:05;;;;;;;2.40;1.83;;;12.70;99.90;;;;;;5052656;28;20198;-59
2023/12/29 09:09:31;;;;;;;1.40;1.10;;;12.80;99.90;;;;;;5052289;28;20206;-60
2023/12/29 09:11:58;;;;;;;1.40;1.10;;;12.90;99.90;;;;;;5052819;28;20292;-62
2023/12/29 09:14:25;;;;;;;1.40;1.30;;;12.90;99.90;;;;;;5052050;28;20194;-61
2023/12/29 09:16:52;;;;;;;2.47;1.20;;;12.90;99.90;;;;;;5052513;28;20259;-61
2023/12/29 09:19:20;;;;;;;1.43;1.30;;;12.80;99.90;;;;;;5052480;28;20212;-59
2023/12/29 09:21:47;;;;;;;1.50;1.30;;;12.70;99.90;;;;;;5052138;28;20229;-61
2023/12/29 09:24:13;;;;;;;1.23;1.03;;;12.80;99.90;;;;;;5052294;28;20228;-62
2023/12/29 09:26:40;;;;;;;3.47;1.60;;;12.90;99.90;;;;;;5052026;28;20257;-64
2023/12/29 09:29:07;;;;;;;1.47;1.20;;;13.00;99.90;;;;;;5052358;28;20251;-63
2023/12/29 09:31:34;;;;;;;4.20;2.63;;;13.10;99.90;;;;;;5051862;28;20229;-62
2023/12/29 09:34:01;;;;;;;1.53;1.43;;;13.20;99.90;;;;;;5052197;28;20248;-63
2023/12/29 09:36:29;;;;;;;1.53;1.40;;;13.40;99.90;;;;;;5051906;28;20288;-61
2023/12/29 09:38:55;;;;;;;6.17;2.60;;;13.50;99.90;;;;;;5051962;28;20205;-62
2023/12/29 09:41:25;;;;;;;1.63;1.30;;;13.60;99.90;;;;;;5051652;28;20229;-64
2023/12/29 09:43:52;;;;;;;2.57;1.53;;;13.70;99.90;;;;;;5036336;28;20221;-61
2023/12/29 09:46:22;;;;;;;1.60;1.33;;;13.80;99.90;;;;;;5051951;28;20201;-64
2023/12/29 09:48:53;;;;;;;2.03;1.30;;;13.90;99.90;;;;;;5035645;28;20625;-63
2023/12/29 09:51:22;;;;;;;1.60;1.40;;;13.90;99.90;;;;;;5051423;28;20225;-63
2023/12/29 09:53:51;;;;;;;1.77;1.20;;;14.00;99.90;;;;;;5035563;28;20233;-62
2023/12/29 09:56:20;;;;;;;1.20;1.10;;;14.00;99.90;;;;;;5051575;28;20201;-64
2023/12/29 09:58:48;;;;;;;1.73;1.00;;;14.10;99.90;;;;;;5051386;28;20205;-63
2023/12/29 10:01:18;;;;;;;1.30;1.00;;;14.10;99.90;;;;;;5051057;28;20706;-63
2023/12/29 10:03:44;;;;;;;3.93;1.17;;;14.10;99.90;;;;;;5051246;28;20762;-63
2023/12/29 10:06:17;;;;;;;1.13;1.00;;;14.20;99.90;;;;;;5051614;28;20294;-64
2023/12/29 10:08:47;;;;;;;2.33;1.13;;;14.20;99.90;;;;;;5051082;28;20320;-62
2023/12/29 10:11:18;;;;;;;1.40;1.03;;;14.20;99.90;;;;;;5051210;28;20233;-61
2023/12/29 10:13:48;;;;;;;5.87;4.10;;;14.20;99.90;;;;;;5051039;28;20663;-63
2023/12/29 10:16:24;;;;;;;2.43;1.93;;;14.30;99.90;;;;;;5051504;28;20206;-63
2023/12/29 10:19:04;;;;;;;2.03;1.20;;;14.20;99.90;;;;;;5035345;28;20307;-61
2023/12/29 10:21:39;;;;;;;1.33;1.20;;;14.20;99.90;;;;;;5069263;22;20233;-56
2023/12/29 10:24:11;;;;;;;1.67;1.27;;;14.20;99.90;;;;;;5039240;28;20221;-56
2023/12/29 10:26:40;;;;;;;6.30;1.60;;;14.30;99.90;;;;;;5041317;28;20272;-55
2023/12/29 10:29:08;;;;;;;1.17;0.93;;;14.40;99.90;;;;;;5042762;28;20201;-55
2023/12/29 10:31:34;;;;;;;1.83;1.30;;;14.50;99.90;;;;;;5047432;28;20232;-54
2023/12/29 10:34:29;;;;;;;0.83;0.80;;;14.60;99.90;;;;;;5050936;28;20224;-57
2023/12/29 10:36:57;;;;;;;4.07;2.23;;;14.80;99.90;;;;;;5019441;28;20636;-56
2023/12/29 10:39:23;;;;;;;1.50;1.00;;;14.70;99.90;;;;;;5050771;28;20293;-58
2023/12/29 10:42:04;;;;;;;1.47;1.00;;;14.70;99.90;;;;;;5050410;28;20779;-57
2023/12/29 10:44:30;;;;;;;1.80;0.97;;;14.80;99.90;;;;;;5050169;28;20764;-56
2023/12/29 10:46:57;;;;;;;1.60;1.23;;;14.70;99.90;;;;;;5050857;28;20599;-56
2023/12/29 10:49:24;;;;;;;5.07;3.03;;;14.60;99.90;;;;;;5050930;28;20259;-56
2023/12/29 10:51:51;;;;;;;2.00;1.00;;;14.50;99.90;;;;;;5034370;28;20306;-56
2023/12/29 10:54:23;;;;;;;2.57;1.37;;;14.40;99.90;;;;;;5050558;28;20697;-55
2023/12/29 10:57:01;;;;;;;2.30;1.40;;;14.40;99.90;;;;;;5050394;28;20655;-56
2023/12/29 10:59:28;;;;;;;1.20;1.03;;;14.40;99.90;;;;;;5050585;28;20206;-56
2023/12/29 11:01:55;;;;;;;1.23;1.00;;;14.30;99.90;;;;;;5050255;28;20271;-55
2023/12/29 11:04:23;;;;;;;2.47;1.00;;;14.30;99.90;;;;;;5050429;28;20221;-55
2023/12/29 11:06:51;;;;;;;1.30;1.00;;;14.30;99.90;;;;;;5050448;28;20209;-55
2023/12/29 11:09:29;;;;;;;2.03;1.80;;;14.30;99.90;;;;;;5050562;28;20746;-55
2023/12/29 11:12:00;;;;;;;1.57;1.10;;;14.40;99.90;;;;;;5039208;28;20308;-55
2023/12/29 11:14:28;;;;;;;0.83;0.80;;;14.20;99.90;;;;;;5054311;28;20202;-56
2023/12/29 11:16:55;;;;;;;0.80;0.70;;;14.30;99.90;;;;;;5054307;28;20212;-56
2023/12/29 11:19:22;;;;;;;0.90;0.70;;;14.30;99.90;;;;;;5053987;28;20251;-56
2023/12/29 11:21:53;;;;;;;1.00;0.80;;;14.20;99.90;;;;;;5053388;28;20283;-55
2023/12/29 11:24:20;;;;;;;2.20;1.00;;;14.20;99.90;;;;;;5054156;28;20300;-54
2023/12/29 11:26:47;;;;;;;0.70;0.70;;;14.20;99.90;;;;;;5054148;28;20622;-55
2023/12/29 11:29:16;;;;;;;1.40;1.13;;;14.20;99.90;;;;;;5054498;28;20466;-55
2023/12/29 11:31:44;;;;;;;2.67;0.80;;;14.20;99.90;;;;;;5053814;28;20225;-56
2023/12/29 11:34:14;;;;;;;1.90;0.83;;;14.20;99.90;;;;;;5053953;28;20201;-54
2023/12/29 11:36:46;;;;;;;3.20;1.60;;;14.30;99.90;;;;;;5054203;28;20284;-55
2023/12/29 11:39:21;;;;;;;3.03;1.00;;;14.30;99.90;;;;;;5054412;28;20263;-55
2023/12/29 11:41:53;;;;;;;1.43;1.30;;;14.30;99.90;;;;;;5054631;28;20626;-53
2023/12/29 11:44:27;;;;;;;2.63;2.00;;;14.30;99.90;;;;;;5053739;28;20221;-56
2023/12/29 11:46:54;;;;;;;2.00;1.33;;;14.40;99.90;;;;;;5038001;28;20667;-54
2023/12/29 11:49:21;;;;;;;5.07;2.97;;;14.50;99.90;;;;;;5053954;28;20201;-57
2023/12/29 11:51:49;;;;;;;1.30;1.13;;;14.50;99.90;;;;;;5053532;28;20240;-54
2023/12/29 11:54:23;;;;;;;3.30;2.47;;;14.50;99.90;;;;;;5053808;28;20739;-53
2023/12/29 11:56:50;;;;;;;1.40;1.27;;;14.60;99.90;;;;;;5053747;28;20208;-56
2023/12/29 11:59:19;;;;;;;1.63;1.17;;;14.50;99.90;;;;;;5053684;28;20201;-55
2023/12/29 12:01:48;;;;;;;1.08;0.80;;;14.60;99.90;;;;;;5053536;28;20257;-55
2023/12/29 12:04:39;;;;;;;1.37;1.07;;;14.60;99.90;;;;;;5053411;28;20785;-55
2023/12/29 12:07:07;;;;;;;1.20;0.90;;;14.50;99.90;;;;;;5040852;28;20205;-55
2023/12/29 12:09:34;;;;;;;1.27;1.00;;;14.40;99.90;;;;;;5053216;28;20201;-55
2023/12/29 12:12:01;;;;;;;1.33;1.20;;;14.30;99.90;;;;;;5053391;28;20222;-54
2023/12/29 12:14:45;;;;;;;1.60;1.17;;;14.30;99.90;;;;;;5053644;28;20207;-55
2023/12/29 12:17:13;;;;;;;1.93;1.33;;;14.30;99.90;;;;;;5053408;28;20202;-54
2023/12/29 12:19:40;;;;;;;2.53;0.93;;;14.30;99.90;;;;;;5053842;28;20255;-56
2023/12/29 12:22:10;;;;;;;2.70;1.40;;;14.30;99.90;;;;;;5053244;28;20221;-54
2023/12/29 12:24:37;;;;;;;1.30;0.80;;;14.40;99.90;;;;;;5053881;28;20233;-55
2023/12/29 12:27:10;;;;;;;1.27;0.77;;;14.50;99.90;;;;;;5054064;28;20288;-57
2023/12/29 12:29:37;;;;;;;1.43;1.10;;;14.80;99.90;;;;;;5053628;28;20256;-56
2023/12/29 12:32:04;;;;;;;1.00;0.90;;;14.90;99.90;;;;;;5053729;28;20260;-55
2023/12/29 12:34:39;;;;;;;4.27;1.10;;;14.90;99.90;;;;;;5053333;28;20692;-53
2023/12/29 12:37:07;;;;;;;1.30;0.87;;;14.90;99.90;;;;;;5053881;28;20662;-56
2023/12/29 12:39:40;;;;;;;0.77;0.70;;;15.00;99.90;;;;;;5053478;28;20389;-57
2023/12/29 12:42:07;;;;;;;1.10;0.60;;;15.10;99.90;;;;;;5053340;28;20304;-55
2023/12/29 12:44:34;;;;;;;0.70;0.60;;;15.10;99.90;;;;;;5053229;28;20256;-55
2023/12/29 12:47:07;;;;;;;1.33;1.07;;;15.10;99.90;;;;;;5053362;28;20250;-56
2023/12/29 12:49:34;;;;;;;1.70;1.07;;;15.30;99.90;;;;;;5053301;28;20202;-58
2023/12/29 12:52:03;;;;;;;1.20;0.90;;;15.50;99.90;;;;;;5053037;28;20226;-55